Latest Weather Observations for Lake Macquarie - Cooranbong

IDN60801

Issued at 9:32 pm EDT Monday 20 February 2017 (issued every 30 minutes, with the page automatically refreshed every 10 minutes)

About weather observations | Map of weather stations | Latest weather observations for NSW | Other Formats
Station Details ID: 061412 Name: LAKE MACQUARIE AWS Lat: -33.09 Lon: 151.46 Height: 6.0 m
Data from the previous 72 hours. | See also: Recent months at Lake Macquarie - Cooranbong
Date/Time
EDT
Temp
°C
App
Temp
°C
Dew
Point
°C
Rel
Hum
%
Delta-T
°C
Wind Press
QNH
hPa
Press
MSL
hPa
Rain since
9am
mm
Dir  Spd
km/h
Gust
km/h
Spd
kts
Gust
kts
20/09:30pm 16.7 17.1 11.2 70 3.0 CALM 0 0 0 0 1015.5 1015.5 0.0
20/09:00pm 17.6 17.8 10.7 64 3.7 CALM 0 0 0 0 1015.0 1015.0 0.0
20/08:30pm 19.7 20.0 10.9 57 4.8 CALM 0 4 0 2 1014.4 1014.4 0.0
20/08:00pm 20.4 19.4 9.0 48 6.0 NE 4 6 2 3 1013.6 1013.6 0.0
20/07:30pm 22.2 21.0 8.0 40 7.4 NE 4 7 2 4 1012.8 1012.8 0.0
20/07:00pm 23.4 21.5 6.7 34 8.6 ENE 6 9 3 5 1012.2 1012.2 0.0
20/06:30pm 24.2 21.7 4.6 28 9.8 E 7 11 4 6 1011.4 1011.4 0.0
20/06:00pm 24.8 21.7 3.5 25 10.4 E 9 15 5 8 1011.1 1011.1 0.0
20/05:30pm 25.3 22.5 3.3 24 10.8 E 7 13 4 7 1010.8 1010.8 0.0
20/05:00pm 25.3 22.0 4.4 26 10.5 E 11 17 6 9 1010.3 1010.3 0.0
20/04:30pm 25.5 22.3 5.1 27 10.3 E 11 17 6 9 1010.1 1010.1 0.0
20/04:00pm 25.5 21.9 5.1 27 10.4 ENE 13 26 7 14 1009.9 1009.9 0.0
20/03:30pm 26.2 22.4 4.1 24 11.1 ENE 13 22 7 12 1009.7 1009.7 0.0
20/03:00pm 28.5 25.0 -1.6 14 13.8 N 7 17 4 9 1009.5 1009.5 0.0
20/02:30pm 27.8 24.4 -2.1 14 13.5 N 6 15 3 8 1009.8 1009.8 0.0
20/02:00pm 27.4 23.8 -2.4 14 13.4 WNW 7 19 4 10 1010.1 1010.1 0.0
20/01:30pm 26.6 23.2 1.8 20 11.9 NW 9 20 5 11 1010.4 1010.4 0.0
20/01:00pm 25.7 22.3 -0.4 18 12.0 WNW 7 20 4 11 1010.7 1010.7 0.0
20/12:30pm 25.7 22.1 3.0 23 11.1 NW 11 26 6 14 1011.0 1011.0 0.0
20/12:00pm 24.6 20.8 1.5 22 10.9 W 11 24 6 13 1011.3 1011.3 0.0
20/11:30am 24.1 20.7 4.0 27 9.9 NW 11 22 6 12 1011.6 1011.6 0.0
20/11:00am 23.2 19.7 3.7 28 9.5 WSW 11 22 6 12 1011.8 1011.8 0.0
20/10:30am 22.9 20.3 4.4 30 9.1 W 7 17 4 9 1011.9 1011.9 0.0
20/10:00am 21.9 18.5 4.0 31 8.7 WSW 11 22 6 12 1011.9 1011.9 0.0
20/09:30am 21.6 17.6 4.7 33 8.3 W 15 24 8 13 1011.8 1011.8 0.0
20/09:00am 20.8 17.9 4.4 34 8.0 W 9 20 5 11 1011.8 1011.8 0.0
20/08:30am 18.6 17.8 8.3 51 5.3 NNW 2 13 1 7 1011.6 1011.6 0.0
20/08:00am 15.1 15.1 9.7 70 2.8 CALM 0 4 0 2 1011.6 1011.6 0.0
20/07:30am 12.4 11.8 8.9 79 1.8 NNW 2 4 1 2 1011.4 1011.4 0.0
20/07:00am 11.1 10.7 8.1 82 1.5 CALM 0 0 0 0 1011.2 1011.2 0.0
20/06:30am 11.7 10.6 8.6 81 1.5 N 4 6 2 3 1010.7 1010.7 0.0
20/06:00am 12.6 11.8 8.3 75 2.1 N 2 4 1 2 1010.3 1010.3 0.0
20/05:30am 13.7 12.5 7.9 68 2.9 NW 4 6 2 3 1009.8 1009.8 0.0
20/05:00am 15.7 13.8 6.7 55 4.4 NNW 6 13 3 7 1009.4 1009.4 0.0
20/04:30am 17.2 15.8 5.5 46 5.6 SW 2 6 1 3 1009.0 1009.0 0.0
20/04:00am 18.9 16.6 4.7 39 6.8 SW 6 9 3 5 1008.6 1008.6 0.0
20/03:30am 19.1 16.9 6.2 43 6.4 W 7 13 4 7 1008.3 1008.3 0.0
20/03:00am 19.4 17.8 8.1 48 5.8 SW 6 9 3 5 1007.8 1007.7 0.0
20/02:30am 20.7 19.2 8.4 45 6.4 SW 6 11 3 6 1007.3 1007.2 0.0
20/02:00am 21.3 20.5 11.1 52 5.6 SW 6 13 3 7 1007.2 1007.1 0.0
20/01:30am 21.9 20.6 11.3 51 5.9 WSW 9 19 5 10 1006.8 1006.7 0.0
20/01:00am 21.6 21.3 13.2 59 4.8 WSW 7 17 4 9 1006.6 1006.5 0.0
20/12:30am 20.0 20.9 16.0 78 2.4 WSW 6 13 3 7 1006.9 1006.8 0.0
20/12:00am 20.2 22.7 18.1 88 1.3 SSW 2 4 1 2 1006.7 1006.6 0.0
 
Date/Time
EDT
Temp
°C
App
Temp
°C
Dew
Point
°C
Rel
Hum
%
Delta-T
°C
Wind Press
QNH
hPa
Press
MSL
hPa
Rain since
9am
mm
Dir  Spd
km/h
Gust
km/h
Spd
kts
Gust
kts
19/11:30pm 20.3 23.2 18.1 87 1.4 CALM 0 0 0 0 1006.4 1006.3 0.0
19/11:00pm 20.8 23.7 18.2 85 1.6 CALM 0 4 0 2 1006.2 1006.1 0.0
19/10:30pm 21.0 23.1 18.2 84 1.7 WSW 4 6 2 3 1006.0 1005.9 0.0
19/10:00pm 21.1 23.6 18.1 83 1.9 WSW 2 4 1 2 1006.3 1006.2 0.0
19/09:30pm 21.1 23.5 17.9 82 2.0 SSW 2 4 1 2 1006.1 1006.0 0.0
19/09:00pm 21.0 23.3 17.8 82 2.0 SSE 2 4 1 2 1005.3 1005.2 0.0
19/08:30pm 21.2 23.8 17.4 79 2.3 CALM 0 2 0 1 1005.2 1005.1 0.0
19/08:00pm 21.4 22.2 17.4 78 2.5 N 9 11 5 6 1005.7 1005.6 0.0
19/07:30pm 22.0 23.7 18.0 78 2.5 N 6 9 3 5 1005.9 1005.8 0.0
19/07:00pm 22.2 24.2 17.8 76 2.7 N 4 6 2 3 1005.7 1005.6 0.0
19/06:30pm 22.6 25.0 17.9 75 2.9 ENE 2 6 1 3 1005.1 1005.0 0.0
19/06:00pm 22.8 24.3 17.7 73 3.2 ENE 6 9 3 5 1005.3 1005.2 0.0
19/05:30pm 23.2 24.5 17.0 68 3.8 E 6 11 3 6 1005.5 1005.4 0.0
19/05:00pm 23.6 24.6 15.4 60 4.9 E 4 9 2 5 1005.2 1005.1 0.0
19/04:30pm 23.1 23.2 15.4 62 4.6 SE 9 15 5 8 1005.7 1005.6 0.0
19/04:00pm 23.0 24.3 17.0 69 3.7 ESE 6 13 3 7 1005.9 1005.8 0.0
19/03:30pm 23.7 25.0 17.2 67 4.0 E 6 9 3 5 1006.1 1006.0 0.0
19/03:00pm 23.9 25.3 16.4 63 4.6 ENE 4 9 2 5 1006.8 1006.7 0.0
19/02:30pm 24.3 25.7 16.3 61 4.9 ESE 4 7 2 4 1006.7 1006.6 0.0
19/02:00pm 23.8 24.9 15.6 60 5.0 SSW 4 11 2 6 1007.1 1007.0 0.0
19/01:30pm 23.5 24.0 15.5 60 4.8 SW 7 13 4 7 1007.6 1007.5 0.0
19/01:00pm 22.8 23.3 15.6 64 4.3 SSW 7 15 4 8 1008.0 1007.9 0.0
19/12:30pm 22.6 23.6 16.4 68 3.8 SW 6 11 3 6 1008.5 1008.5 0.0
19/12:00pm 22.2 23.3 16.5 70 3.5 WSW 6 9 3 5 1008.6 1008.6 0.0
19/11:30am 21.9 22.6 15.5 67 3.8 SW 6 9 3 5 1008.9 1008.9 0.0
19/11:00am 22.1 22.9 15.9 68 3.7 SW 6 11 3 6 1008.9 1008.9 0.0
19/10:30am 21.8 22.2 15.4 67 3.8 SSW 7 13 4 7 1008.7 1008.7 0.0
19/10:00am 21.5 22.4 16.0 71 3.3 SSW 6 9 3 5 1008.8 1008.8 0.0
19/09:30am 21.5 22.4 16.2 72 3.2 WSW 6 15 3 8 1008.6 1008.6 0.0
19/09:00am 20.9 21.8 16.1 74 2.9 SW 6 9 3 5 1008.6 1008.6 5.2
19/08:30am 20.8 22.2 16.4 76 2.7 SSW 4 9 2 5 1008.5 1008.5 5.2
19/08:00am 20.4 21.3 16.2 77 2.5 SW 6 11 3 6 1008.3 1008.3 5.2
19/07:30am 20.2 22.1 16.6 80 2.2 SW 2 6 1 3 1008.1 1008.0 5.2
19/07:00am 20.6 22.3 17.2 81 2.1 SW 4 9 2 5 1007.9 1007.8 5.2
19/06:30am 21.0 22.4 17.4 80 2.2 SW 6 9 3 5 1007.4 1007.3 4.8
19/06:00am 21.4 23.4 17.8 80 2.2 SSW 4 9 2 5 1007.2 1007.1 4.8
19/05:30am 21.8 24.1 18.6 82 2.0 SSE 4 6 2 3 1006.9 1006.8 4.8
19/05:00am 21.9 25.0 18.7 82 2.0 CALM 0 0 0 0 1006.5 1006.4 4.8
19/04:30am 21.9 23.8 18.5 81 2.1 SW 6 17 3 9 1006.1 1006.0 4.8
19/04:00am 22.0 24.8 18.8 82 2.0 SW 2 4 1 2 1006.1 1006.0 4.8
19/03:30am 22.1 24.5 18.7 81 2.1 SW 4 7 2 4 1006.1 1006.0 4.8
19/03:00am 22.3 24.7 18.9 81 2.2 SW 4 6 2 3 1006.1 1006.0 4.8
19/02:30am 22.4 24.9 19.0 81 2.2 SW 4 9 2 5 1005.6 1005.5 4.8
19/02:00am 22.5 24.7 19.1 81 2.2 SW 6 9 3 5 1005.4 1005.3 4.8
19/01:30am 22.7 25.8 19.5 82 2.0 SW 2 6 1 3 1005.8 1005.7 4.8
19/01:00am 22.8 25.7 19.8 83 1.9 SSW 4 11 2 6 1005.9 1005.8 4.8
19/12:30am 22.7 25.3 20.0 85 1.7 SW 6 15 3 8 1005.6 1005.5 4.8
19/12:00am 22.6 24.9 19.9 85 1.7 WSW 7 17 4 9 1005.6 1005.5 4.8
 
Date/Time
EDT
Temp
°C
App
Temp
°C
Dew
Point
°C
Rel
Hum
%
Delta-T
°C
Wind Press
QNH
hPa
Press
MSL
hPa
Rain since
9am
mm
Dir  Spd
km/h
Gust
km/h
Spd
kts
Gust
kts
18/11:30pm 22.9 25.9 20.1 84 1.8 SSW 4 9 2 5 1005.8 1005.7 4.8
18/11:00pm 23.1 26.2 20.2 84 1.9 SW 4 9 2 5 1006.3 1006.2 4.8
18/10:30pm 23.0 25.6 20.1 84 1.9 SSW 6 11 3 6 1006.2 1006.1 4.8
18/10:00pm 23.0 25.7 20.3 85 1.8 SW 6 11 3 6 1006.6 1006.5 4.8
18/09:30pm 22.8 25.9 20.3 86 1.6 SSW 4 9 2 5 1005.9 1005.8 4.8
18/09:00pm 22.9 26.1 20.6 87 1.5 SW 4 9 2 5 1005.3 1005.2 4.8
18/08:30pm 23.1 26.4 20.8 87 1.5 WSW 4 7 2 4 1004.9 1004.8 4.8
18/08:00pm 23.0 27.0 20.5 86 1.6 CALM 0 6 0 3 1004.4 1004.3 4.8
18/07:30pm 23.4 26.6 21.3 88 1.4 S 6 17 3 9 1003.7 1003.6 4.6
18/07:00pm 23.6 26.9 21.9 90 1.1 S 7 15 4 8 1003.1 1003.0 4.4
18/06:30pm 23.5 26.2 20.6 84 1.9 S 7 13 4 7 1003.6 1003.5 4.2
18/06:15pm 25.6 27.8 19.7 70 3.8 W 7 28 4 15 1004.5 1004.4 0.4
18/06:00pm 26.4 29.8 20.9 72 3.6 NW 4 6 2 3 1002.5 1002.4 0.4
18/05:30pm 26.3 29.9 20.6 71 3.7 S 2 9 1 5 1003.4 1003.3 0.2
18/05:00pm 26.9 29.1 17.4 56 6.0 SSE 2 6 1 3 1003.7 1003.6 0.0
18/04:30pm 27.1 28.0 16.7 53 6.5 ENE 7 11 4 6 1002.8 1002.7 0.0
18/04:00pm 28.7 28.5 16.6 48 7.6 ESE 13 24 7 13 1003.3 1003.2 0.0
18/03:30pm 28.9 29.9 18.7 54 6.6 SE 11 22 6 12 1004.2 1004.1 0.0
18/03:00pm 28.3 29.3 19.5 59 5.7 ESE 13 24 7 13 1004.9 1004.8 0.0
18/02:30pm 28.0 29.4 19.5 60 5.5 SE 11 24 6 13 1005.3 1005.2 0.0
18/02:00pm 29.3 30.1 19.9 57 6.2 ESE 15 22 8 12 1005.3 1005.2 0.0
18/01:30pm 28.9 31.2 20.6 61 5.5 SE 9 19 5 10 1005.3 1005.2 0.0
18/01:00pm 28.3 29.6 20.1 61 5.4 SE 13 20 7 11 1005.4 1005.3 0.0
18/12:30pm 28.9 29.8 20.1 59 5.8 ESE 15 22 8 12 1005.5 1005.4 0.0
18/12:00pm 29.4 30.3 20.0 57 6.2 ESE 15 28 8 15 1005.6 1005.5 0.0
18/11:30am 29.8 30.1 17.9 48 7.6 SE 13 22 7 12 1006.0 1005.9 0.0
18/11:00am 33.7 34.3 15.7 34 11.3 N 7 15 4 8 1005.6 1005.5 0.0
18/10:30am 32.8 33.6 15.8 36 10.6 N 6 11 3 6 1005.8 1005.7 0.0
18/10:00am 31.6 32.3 15.5 37 10.0 NW 6 13 3 7 1005.8 1005.7 0.0
18/09:30am 29.9 30.5 15.2 41 9.0 NW 6 13 3 7 1006.0 1005.9 0.0
18/09:00am 29.5 30.2 15.6 43 8.6 N 6 13 3 7 1006.0 1005.9 0.0
18/08:30am 28.6 29.1 15.5 45 8.0 NNW 7 13 4 7 1005.8 1005.7 0.0
18/08:00am 28.0 28.5 15.6 46 7.6 NW 7 19 4 10 1005.8 1005.7 0.0
18/07:30am 26.9 26.7 15.6 50 6.9 NNW 11 22 6 12 1005.7 1005.6 0.0
18/07:00am 26.4 26.5 15.4 50 6.7 NW 9 17 5 9 1005.5 1005.4 0.0
18/06:30am 25.6 26.3 15.6 54 6.1 NNW 6 11 3 6 1005.4 1005.3 0.0
18/06:00am 23.6 24.8 16.9 66 4.1 NNW 6 15 3 8 1005.2 1005.1 0.0
18/05:30am 21.1 22.9 17.3 79 2.3 SSE 4 7 2 4 1005.4 1005.3 0.0
18/05:00am 21.4 24.0 17.4 78 2.5 CALM 0 2 0 1 1005.3 1005.2 0.0
18/04:30am 21.8 23.1 17.2 75 2.8 N 6 7 3 4 1005.4 1005.3 0.0
18/04:00am 22.4 23.6 16.9 71 3.4 NNW 6 6 3 3 1005.7 1005.6 0.0
18/03:30am 24.1 25.5 17.4 66 4.2 NW 6 9 3 5 1006.3 1006.2 0.0
18/03:00am 21.6 23.6 17.8 79 2.4 NNW 4 6 2 3 1006.7 1006.6 0.0
18/02:30am 22.0 24.6 17.6 76 2.7 CALM 0 4 0 2 1007.0 1006.9 0.0
18/02:00am 23.1 24.7 17.8 72 3.3 NNE 6 9 3 5 1007.4 1007.3 0.0
18/01:30am 21.8 23.8 17.8 78 2.5 N 4 7 2 4 1007.9 1007.8 0.0
18/01:00am 22.0 24.4 18.0 78 2.5 N 2 6 1 3 1008.5 1008.5 0.0
18/12:30am 22.4 24.3 18.6 79 2.4 N 6 11 3 6 1008.9 1008.9 0.0
18/12:00am 22.6 24.5 19.0 80 2.3 N 7 11 4 6 1009.5 1009.5 0.0
 
Date/Time
EDT
Temp
°C
App
Temp
°C
Dew
Point
°C
Rel
Hum
%
Delta-T
°C
Wind Press
QNH
hPa
Press
MSL
hPa
Rain since
9am
mm
Dir  Spd
km/h
Gust
km/h
Spd
kts
Gust
kts
17/11:30pm 23.0 24.3 19.2 79 2.4 N 11 15 6 8 1010.1 1010.1 0.0
17/11:00pm 23.4 26.1 19.5 79 2.5 NE 4 9 2 5 1010.7 1010.7 0.0
17/10:30pm 23.8 26.2 19.7 78 2.6 E 6 7 3 4 1011.2 1011.2 0.0
17/10:00pm 23.6 26.2 19.3 77 2.7 SW 4 9 2 5 1012.1 1012.1 0.0

Other Formats:

Comma delimited format used in spreadsheet applications
http://www.bom.gov.au/fwo/IDN60801/IDN60801.95767.axf

JavaScript Object Notation format (JSON) in row-major order
http://www.bom.gov.au/fwo/IDN60801/IDN60801.95767.json